Marianne — VRFM5 — position and weather

sailwx.info

Track history (hours):
 
Tides and Currents Weather Stations Pressure Air Temp Water Temp Dewpoint Dewpoint Depression Visibility Wind Speed Wind Dir Waves Ship Positions

Marianne

Last reported at 2014-Nov-01 01:31 UTC. Time now 2014-Nov-01 01:58 UTC.
Position N 54°41' W 001°04'.

Length 97 m; draft 5.5 m.

Type: Ship (hazmat cat B). MMSI: 477560836.

Date/timePositionNaut miles runAvg speedWind from/ knotsBaromVisibWave heightAir tempDewpointWater temp
2014-Nov-01 01:31N 54°41' W 001°04'0 0.0
2014-Nov-01 00:31N 54°41' W 001°04'0 0.0
2014-Oct-31 23:31N 54°41' W 001°04'0 0.3
2014-Oct-31 22:33N 54°41' W 001°04'1211.5
2014-Oct-31 21:33N 54°53' W 001°08'1313.4
2014-Oct-31 20:33N 55°06' W 001°09'13012.7
2014-Oct-31 10:15N 57°16' W 001°33'812.0
2014-Oct-31 09:33N 57°24' W 001°34'1212.2
2014-Oct-31 08:33N 57°36' W 001°37'1313.2
2014-Oct-31 07:33N 57°47' W 001°51'5713.6
2014-Oct-31 03:22N 58°34' W 002°52'1316.3
2014-Oct-31 02:33N 58°43' W 003°10'1615.9
2014-Oct-31 01:33N 58°43' W 003°41'1514.6
2014-Oct-31 00:33N 58°43' W 004°09'1514.6
2014-Oct-30 23:33N 58°43' W 004°37'1912.8
2014-Oct-30 22:05N 58°35' W 005°10'814.4
2014-Oct-30 21:32N 58°28' W 005°18'1414.0
2014-Oct-30 20:33N 58°17' W 005°33'1513.8
2014-Oct-30 19:28N 58°04' W 005°48'1313.9
2014-Oct-30 18:33N 57°54' W 006°01'13113.0
2014-Oct-30 08:31N 55°46' W 006°58'1414.8
2014-Oct-30 07:33N 55°35' W 006°43'1615.8
2014-Oct-30 06:33N 55°27' W 006°19'1515.4
2014-Oct-30 05:33N 55°19' W 005°55'1816.8
2014-Oct-30 04:29N 55°03' W 005°42'1415.1
2014-Oct-30 03:33N 54°50' W 005°36'1111.5
2014-Oct-30 02:33N 54°41' W 005°49'4 0.2
2014-Oct-29 05:15N 54°37' W 005°53'2 3.4
2014-Oct-29 04:33N 54°39' W 005°51'8 8.0
2014-Oct-29 03:33N 54°43' W 005°40'3 3.4
2014-Oct-29 02:33N 54°46' W 005°36'1313.0
2014-Oct-29 01:33N 54°59' W 005°41'1615.3
2014-Oct-29 00:31N 55°12' W 005°56'1515.9
2014-Oct-28 23:34N 55°22' W 006°16'1616.0
2014-Oct-28 22:33N 55°32' W 006°39'1515.2
2014-Oct-28 21:34N 55°43' W 006°56'14112.4
2014-Oct-28 10:10N 58°03' W 006°09'813.0
2014-Oct-28 09:33N 58°08' W 005°58'1313.2
2014-Oct-28 08:33N 58°19' W 005°42'5212.1
2014-Oct-28 04:16N 58°43' W 004°15'1013.9
2014-Oct-28 03:33N 58°43' W 003°55'1413.9
2014-Oct-28 02:33N 58°43' W 003°29'1313.2
2014-Oct-28 01:33N 58°42' W 003°03'10 9.8
2014-Oct-28 00:34N 58°34' W 002°52'5413.2
2014-Oct-27 20:27N 57°51' W 001°50'1314.9
2014-Oct-27 19:33N 57°40' W 001°35'1515.1
2014-Oct-27 18:33N 57°25' W 001°32'15414.0
2014-Oct-27 07:33N 54°52' W 001°07'1212.1
2014-Oct-27 06:32N 54°39' W 001°08'2 0.1
2014-Oct-26 16:15N 54°37' W 001°10'0 0.0
2014-Oct-26 14:30N 54°37' W 001°10'0 0.0
2014-Oct-26 13:30N 54°37' W 001°10'0 0.0
2014-Oct-26 12:18N 54°37' W 001°10'0 0.0
2014-Oct-26 11:15N 54°37' W 001°10'0 0.0
2014-Oct-26 09:21N 54°37' W 001°10'0 0.0
2014-Oct-26 08:33N 54°37' W 001°10'0 0.0
2014-Oct-25 15:09N 54°37' W 001°10'0 0.0
2014-Oct-25 14:27N 54°37' W 001°10'0 0.0
2014-Oct-25 12:24N 54°37' W 001°10'0 0.0
2014-Oct-25 08:18N 54°37' W 001°10'0 0.0
2014-Oct-25 07:18N 54°37' W 001°10'0 0.0
2014-Oct-24 16:29N 54°37' W 001°10'0 0.0
2014-Oct-24 14:23N 54°37' W 001°10'0 0.0
2014-Oct-24 12:23N 54°37' W 001°10'0 0.0
2014-Oct-24 11:08N 54°37' W 001°10'0 0.0
2014-Oct-24 06:29N 54°37' W 001°10'0 0.0
2014-Oct-23 18:12N 54°38' W 001°10'5 6.1
2014-Oct-23 17:28N 54°41' W 001°05'0 0.1
2014-Oct-23 16:31N 54°41' W 001°04'0 0.0
2014-Oct-23 15:04N 54°41' W 001°04'0 0.0
2014-Oct-23 14:19N 54°41' W 001°04'0 0.0
2014-Oct-23 13:31N 54°41' W 001°04'0 0.0
2014-Oct-23 12:22N 54°41' W 001°04'0 0.0
2014-Oct-23 11:22N 54°41' W 001°04'0 0.0
2014-Oct-23 10:25N 54°41' W 001°04'0 0.0
2014-Oct-23 09:25N 54°41' W 001°04'0 0.0
2014-Oct-23 08:22N 54°41' W 001°04'0 0.0
2014-Oct-23 07:28N 54°41' W 001°04'0 0.0
2014-Oct-23 06:28N 54°41' W 001°04'0 0.1
2014-Oct-23 05:21N 54°41' W 001°04'0 0.1
2014-Oct-23 04:31N 54°41' W 001°04'0 0.0
2014-Oct-23 03:31N 54°41' W 001°04'0 0.0
2014-Oct-23 02:31N 54°41' W 001°04'0 0.0
2014-Oct-23 01:31N 54°41' W 001°04'0 0.0
2014-Oct-23 00:31N 54°41' W 001°04'0 0.0
2014-Oct-22 23:31N 54°41' W 001°04'0 0.0
2014-Oct-22 22:31N 54°41' W 001°04'0 0.0
2014-Oct-22 21:31N 54°41' W 001°04'0 0.0
2014-Oct-22 20:31N 54°41' W 001°04'0 0.0
2014-Oct-22 19:31N 54°41' W 001°04'0 0.0
2014-Oct-22 18:31N 54°41' W 001°04'0 0.0
2014-Oct-22 17:32N 54°41' W 001°04'0 0.0
2014-Oct-22 16:32N 54°41' W 001°04'0 0.0
2014-Oct-22 15:33N 54°41' W 001°04'0 0.0
2014-Oct-22 14:32N 54°41' W 001°04'0 0.0
2014-Oct-22 13:32N 54°41' W 001°04'0 0.0
2014-Oct-22 12:33N 54°41' W 001°04'0 0.0
2014-Oct-22 11:32N 54°41' W 001°04'0 0.0
2014-Oct-22 10:33N 54°41' W 001°04'0 0.0
2014-Oct-22 09:33N 54°41' W 001°04'2 2.4
2014-Oct-22 08:33N 54°40' W 001°08'8 7.8
2014-Oct-22 07:33N 54°47' W 001°03'3 3.1
2014-Oct-22 06:33N 54°50' W 001°02'1 1.4
2014-Oct-22 05:32N 54°50' W 000°60'3 3.4
2014-Oct-22 04:33N 54°47' W 000°56'3 2.5
2014-Oct-22 03:31N 54°46' W 000°53'1 1.1
2014-Oct-22 02:33N 54°46' W 000°54'7 7.1
2014-Oct-22 01:33N 54°52' W 001°02'  
Track history (hours):
 
Tides and Currents Weather Stations Pressure Air Temp Water Temp Dewpoint Dewpoint Depression Visibility Wind Speed Wind Dir Waves Ship Positions

Marianne

Last reported at 2014-Nov-01 01:31 UTC. Time now 2014-Nov-01 01:58 UTC.
Position N 54°41' W 001°04'.

Length 97 m; draft 5.5 m.

Type: Ship (hazmat cat B). MMSI: 477560836.

Date/timePositionNaut miles runAvg speedWind from/ knotsBaromVisibWave heightAir tempDewpointWater temp
2014-Nov-01 01:31N 54°41' W 001°04'0 0.0
2014-Nov-01 00:31N 54°41' W 001°04'0 0.0
2014-Oct-31 23:31N 54°41' W 001°04'0 0.3
2014-Oct-31 22:33N 54°41' W 001°04'1211.5
2014-Oct-31 21:33N 54°53' W 001°08'1313.4
2014-Oct-31 20:33N 55°06' W 001°09'13012.7
2014-Oct-31 10:15N 57°16' W 001°33'812.0
2014-Oct-31 09:33N 57°24' W 001°34'1212.2
2014-Oct-31 08:33N 57°36' W 001°37'1313.2
2014-Oct-31 07:33N 57°47' W 001°51'5713.6
2014-Oct-31 03:22N 58°34' W 002°52'1316.3
2014-Oct-31 02:33N 58°43' W 003°10'1615.9
2014-Oct-31 01:33N 58°43' W 003°41'1514.6
2014-Oct-31 00:33N 58°43' W 004°09'1514.6
2014-Oct-30 23:33N 58°43' W 004°37'1912.8
2014-Oct-30 22:05N 58°35' W 005°10'814.4
2014-Oct-30 21:32N 58°28' W 005°18'1414.0
2014-Oct-30 20:33N 58°17' W 005°33'1513.8
2014-Oct-30 19:28N 58°04' W 005°48'1313.9
2014-Oct-30 18:33N 57°54' W 006°01'13113.0
2014-Oct-30 08:31N 55°46' W 006°58'1414.8
2014-Oct-30 07:33N 55°35' W 006°43'1615.8
2014-Oct-30 06:33N 55°27' W 006°19'1515.4
2014-Oct-30 05:33N 55°19' W 005°55'1816.8
2014-Oct-30 04:29N 55°03' W 005°42'1415.1
2014-Oct-30 03:33N 54°50' W 005°36'1111.5
2014-Oct-30 02:33N 54°41' W 005°49'4 0.2
2014-Oct-29 05:15N 54°37' W 005°53'2 3.4
2014-Oct-29 04:33N 54°39' W 005°51'8 8.0
2014-Oct-29 03:33N 54°43' W 005°40'3 3.4
2014-Oct-29 02:33N 54°46' W 005°36'1313.0
2014-Oct-29 01:33N 54°59' W 005°41'1615.3
2014-Oct-29 00:31N 55°12' W 005°56'1515.9
2014-Oct-28 23:34N 55°22' W 006°16'1616.0
2014-Oct-28 22:33N 55°32' W 006°39'1515.2
2014-Oct-28 21:34N 55°43' W 006°56'14112.4
2014-Oct-28 10:10N 58°03' W 006°09'813.0
2014-Oct-28 09:33N 58°08' W 005°58'1313.2
2014-Oct-28 08:33N 58°19' W 005°42'5212.1
2014-Oct-28 04:16N 58°43' W 004°15'1013.9
2014-Oct-28 03:33N 58°43' W 003°55'1413.9
2014-Oct-28 02:33N 58°43' W 003°29'1313.2
2014-Oct-28 01:33N 58°42' W 003°03'10 9.8
2014-Oct-28 00:34N 58°34' W 002°52'5413.2
2014-Oct-27 20:27N 57°51' W 001°50'1314.9
2014-Oct-27 19:33N 57°40' W 001°35'1515.1
2014-Oct-27 18:33N 57°25' W 001°32'15414.0
2014-Oct-27 07:33N 54°52' W 001°07'1212.1
2014-Oct-27 06:32N 54°39' W 001°08'2 0.1
2014-Oct-26 16:15N 54°37' W 001°10'0 0.0
2014-Oct-26 14:30N 54°37' W 001°10'0 0.0
2014-Oct-26 13:30N 54°37' W 001°10'0 0.0
2014-Oct-26 12:18N 54°37' W 001°10'0 0.0
2014-Oct-26 11:15N 54°37' W 001°10'0 0.0
2014-Oct-26 09:21N 54°37' W 001°10'0 0.0
2014-Oct-26 08:33N 54°37' W 001°10'0 0.0
2014-Oct-25 15:09N 54°37' W 001°10'0 0.0
2014-Oct-25 14:27N 54°37' W 001°10'0 0.0
2014-Oct-25 12:24N 54°37' W 001°10'0 0.0
2014-Oct-25 08:18N 54°37' W 001°10'0 0.0
2014-Oct-25 07:18N 54°37' W 001°10'0 0.0
2014-Oct-24 16:29N 54°37' W 001°10'0 0.0
2014-Oct-24 14:23N 54°37' W 001°10'0 0.0
2014-Oct-24 12:23N 54°37' W 001°10'0 0.0
2014-Oct-24 11:08N 54°37' W 001°10'0 0.0
2014-Oct-24 06:29N 54°37' W 001°10'0 0.0
2014-Oct-23 18:12N 54°38' W 001°10'5 6.1
2014-Oct-23 17:28N 54°41' W 001°05'0 0.1
2014-Oct-23 16:31N 54°41' W 001°04'0 0.0
2014-Oct-23 15:04N 54°41' W 001°04'0 0.0
2014-Oct-23 14:19N 54°41' W 001°04'0 0.0
2014-Oct-23 13:31N 54°41' W 001°04'0 0.0
2014-Oct-23 12:22N 54°41' W 001°04'0 0.0
2014-Oct-23 11:22N 54°41' W 001°04'0 0.0
2014-Oct-23 10:25N 54°41' W 001°04'0 0.0
2014-Oct-23 09:25N 54°41' W 001°04'0 0.0
2014-Oct-23 08:22N 54°41' W 001°04'0 0.0
2014-Oct-23 07:28N 54°41' W 001°04'0 0.0
2014-Oct-23 06:28N 54°41' W 001°04'0 0.1
2014-Oct-23 05:21N 54°41' W 001°04'0 0.1
2014-Oct-23 04:31N 54°41' W 001°04'0 0.0
2014-Oct-23 03:31N 54°41' W 001°04'0 0.0
2014-Oct-23 02:31N 54°41' W 001°04'0 0.0
2014-Oct-23 01:31N 54°41' W 001°04'0 0.0
2014-Oct-23 00:31N 54°41' W 001°04'0 0.0
2014-Oct-22 23:31N 54°41' W 001°04'0 0.0
2014-Oct-22 22:31N 54°41' W 001°04'0 0.0
2014-Oct-22 21:31N 54°41' W 001°04'0 0.0
2014-Oct-22 20:31N 54°41' W 001°04'0 0.0
2014-Oct-22 19:31N 54°41' W 001°04'0 0.0
2014-Oct-22 18:31N 54°41' W 001°04'0 0.0
2014-Oct-22 17:32N 54°41' W 001°04'0 0.0
2014-Oct-22 16:32N 54°41' W 001°04'0 0.0
2014-Oct-22 15:33N 54°41' W 001°04'0 0.0
2014-Oct-22 14:32N 54°41' W 001°04'0 0.0
2014-Oct-22 13:32N 54°41' W 001°04'0 0.0
2014-Oct-22 12:33N 54°41' W 001°04'0 0.0
2014-Oct-22 11:32N 54°41' W 001°04'0 0.0
2014-Oct-22 10:33N 54°41' W 001°04'0 0.0
2014-Oct-22 09:33N 54°41' W 001°04'2 2.4
2014-Oct-22 08:33N 54°40' W 001°08'8 7.8
2014-Oct-22 07:33N 54°47' W 001°03'3 3.1
2014-Oct-22 06:33N 54°50' W 001°02'1 1.4
2014-Oct-22 05:32N 54°50' W 000°60'3 3.4
2014-Oct-22 04:33N 54°47' W 000°56'3 2.5
2014-Oct-22 03:31N 54°46' W 000°53'1 1.1
2014-Oct-22 02:33N 54°46' W 000°54'7 7.1
2014-Oct-22 01:33N 54°52' W 001°02'  

Dump ship's entire track history